Time;durP1;ratioP1;P1;durP2;ratioP2;P2;SDS_P1;SDS_P2;PMS_P1;PMS_P2;Temp;Humidity;BMP_temperature;BMP_pressure;BME280_temperature;BME280_humidity;BME280_pressure;Samples;Min_cycle;Max_cycle;Signal;HPM_P1;HPM_P2
2021/12/30 00:04:15;;;;;;;59.78;22.13;;;;;;;9.93;100.00;100960.72;10540971;28;20051;-61
2021/12/30 00:09:21;;;;;;;54.65;19.52;;;;;;;10.00;100.00;100964.69;10540870;28;20403;-61
2021/12/30 00:14:24;;;;;;;51.63;18.73;;;;;;;10.16;100.00;100978.69;10540492;28;20048;-61
2021/12/30 00:19:26;;;;;;;57.80;18.85;;;;;;;10.04;100.00;100974.94;10540939;28;20048;-60
2021/12/30 00:24:28;;;;;;;67.50;21.63;;;;;;;10.03;100.00;100981.06;10539240;28;20044;-61
2021/12/30 00:29:31;;;;;;;57.95;19.88;;;;;;;10.09;100.00;100973.88;10540516;28;20052;-61
2021/12/30 00:34:33;;;;;;;64.38;18.52;;;;;;;10.21;100.00;100994.13;10539965;28;20073;-61
2021/12/30 00:39:36;;;;;;;51.60;17.70;;;;;;;10.32;100.00;100999.69;10540035;28;20480;-61
2021/12/30 00:44:38;;;;;;;53.00;15.13;;;;;;;10.31;100.00;101000.56;10539828;28;20067;-61
2021/12/30 00:49:40;;;;;;;49.03;14.18;;;;;;;10.46;100.00;100985.84;10539776;28;20052;-61
2021/12/30 00:54:43;;;;;;;39.08;14.02;;;;;;;10.47;100.00;100991.94;10544922;28;20051;-61
2021/12/30 00:59:45;;;;;;;53.40;16.95;;;;;;;10.27;100.00;100985.97;10548316;28;20056;-61
2021/12/30 01:04:47;;;;;;;49.78;16.38;;;;;;;10.34;100.00;100992.59;10547850;28;20047;-62
2021/12/30 01:09:50;;;;;;;49.92;16.05;;;;;;;10.40;100.00;100981.78;10547640;28;20389;-61
2021/12/30 01:14:52;;;;;;;49.85;17.05;;;;;;;10.39;100.00;101002.81;10548070;28;20052;-61
2021/12/30 01:19:54;;;;;;;58.75;20.05;;;;;;;10.42;100.00;101007.88;10547826;28;20052;-61
2021/12/30 01:24:57;;;;;;;58.30;18.75;;;;;;;10.57;100.00;101012.31;10547228;28;20483;-61
2021/12/30 01:29:59;;;;;;;71.22;20.73;;;;;;;10.48;100.00;101019.81;10548033;28;20051;-61
2021/12/30 01:35:04;;;;;;;68.72;23.08;;;;;;;10.58;100.00;101018.38;10546825;28;20040;-61
2021/12/30 01:40:11;;;;;;;65.35;21.45;;;;;;;10.66;100.00;101025.81;10545938;28;20081;-61
2021/12/30 01:45:13;;;;;;;71.60;24.88;;;;;;;10.71;100.00;101029.88;10546714;28;20059;-61
2021/12/30 01:50:17;;;;;;;60.72;22.33;;;;;;;10.90;100.00;101036.75;10547087;28;20048;-60
2021/12/30 01:55:22;;;;;;;70.00;24.60;;;;;;;10.84;100.00;101034.44;10546008;28;20055;-61
2021/12/30 02:00:26;;;;;;;62.25;22.98;;;;;;;10.92;100.00;101033.09;10545852;28;20040;-61
2021/12/30 02:05:29;;;;;;;69.25;23.65;;;;;;;11.01;100.00;101025.66;10544344;28;20079;-61
2021/12/30 02:10:32;;;;;;;62.03;21.58;;;;;;;10.77;100.00;101050.47;10545942;28;20063;-61
2021/12/30 02:15:35;;;;;;;63.28;22.77;;;;;;;10.84;100.00;101045.75;10544240;28;20044;-61
2021/12/30 02:20:54;;;;;;;77.72;25.80;;;;;;;10.74;100.00;101055.91;10543929;28;20044;-61
2021/12/30 02:25:59;;;;;;;62.28;22.38;;;;;;;10.88;100.00;101065.63;10526830;28;20485;-61
2021/12/30 02:31:05;;;;;;;72.50;23.73;;;;;;;10.82;100.00;101062.50;10545112;28;20052;-61
2021/12/30 02:36:08;;;;;;;61.75;20.33;;;;;;;10.87;100.00;101069.16;10544944;28;20052;-62
2021/12/30 02:41:14;;;;;;;69.15;21.45;;;;;;;10.93;100.00;101058.38;10544352;28;20051;-62
2021/12/30 02:46:21;;;;;;;60.58;20.17;;;;;;;10.83;100.00;101054.56;10543955;28;20126;-61
2021/12/30 02:51:24;;;;;;;61.55;20.10;;;;;;;10.93;100.00;101053.13;10543740;28;20097;-61
2021/12/30 02:56:27;;;;;;;58.15;18.10;;;;;;;10.96;100.00;101062.56;10543729;28;20044;-62
2021/12/30 03:01:32;;;;;;;65.78;20.88;;;;;;;11.01;100.00;101064.97;10542355;28;20051;-61
2021/12/30 03:06:34;;;;;;;68.95;23.30;;;;;;;10.98;100.00;101055.50;10543361;28;20048;-61
2021/12/30 03:11:37;;;;;;;58.05;19.90;;;;;;;11.09;100.00;101060.97;10542421;28;20061;-61
2021/12/30 03:16:42;;;;;;;70.20;22.20;;;;;;;11.07;100.00;101062.00;10542028;28;20526;-59
2021/12/30 03:21:44;;;;;;;67.75;23.38;;;;;;;11.15;100.00;101060.66;10542708;28;20044;-59
2021/12/30 03:26:46;;;;;;;64.25;23.50;;;;;;;11.14;100.00;101074.66;10541243;28;20048;-60
2021/12/30 03:31:49;;;;;;;50.40;21.33;;;;;;;11.19;100.00;101069.19;10542254;28;20504;-60
2021/12/30 03:36:51;;;;;;;57.75;21.15;;;;;;;11.32;100.00;101069.34;10542141;28;20054;-60
2021/12/30 03:41:53;;;;;;;50.25;22.05;;;;;;;11.10;100.00;101083.66;10541892;28;20051;-60
2021/12/30 03:46:56;;;;;;;62.80;22.98;;;;;;;11.33;100.00;101076.25;10541121;28;20052;-60
2021/12/30 03:51:58;;;;;;;54.50;22.95;;;;;;;11.13;100.00;101083.47;10541831;28;20052;-60
2021/12/30 03:57:01;;;;;;;49.25;20.73;;;;;;;11.35;100.00;101092.78;10541379;28;20067;-60
2021/12/30 04:02:03;;;;;;;38.72;19.88;;;;;;;11.38;100.00;101081.25;10541693;28;20047;-60
2021/12/30 04:07:06;;;;;;;44.60;20.88;;;;;;;11.49;100.00;101078.88;10539723;28;20051;-60
2021/12/30 04:12:09;;;;;;;47.67;20.83;;;;;;;11.53;100.00;101076.00;10540953;28;20060;-60
2021/12/30 04:17:11;;;;;;;38.97;16.20;;;;;;;11.41;100.00;101091.56;10539964;28;20051;-61
2021/12/30 04:22:18;;;;;;;34.58;15.60;;;;;;;11.29;100.00;101088.69;10539289;28;20051;-61
2021/12/30 04:27:20;;;;;;;34.15;14.32;;;;;;;11.31;100.00;101097.34;10539930;28;20052;-61
2021/12/30 04:32:22;;;;;;;23.45;11.50;;;;;;;11.45;100.00;101101.81;10540129;28;20040;-59
2021/12/30 04:37:26;;;;;;;33.38;13.13;;;;;;;11.42;100.00;101109.00;10540267;28;20051;-61
2021/12/30 04:42:29;;;;;;;13.57;6.80;;;;;;;11.52;100.00;101111.00;10538847;28;20055;-60
2021/12/30 04:47:32;;;;;;;12.43;6.85;;;;;;;11.61;100.00;101103.56;10539690;28;20059;-60
2021/12/30 04:52:34;;;;;;;7.20;4.85;;;;;;;11.64;100.00;101108.63;10538541;28;20044;-60
2021/12/30 04:57:36;;;;;;;7.15;4.72;;;;;;;11.73;100.00;101105.47;10540162;28;20052;-60
2021/12/30 05:03:06;;;;;;;7.55;5.47;;;;;;;11.58;100.00;101111.59;10539515;28;20044;-60
2021/12/30 05:08:01;;;;;;;6.88;5.25;;;;;;;11.69;100.00;101102.19;10539358;28;20047;-62
2021/12/30 05:13:05;;;;;;;5.82;4.50;;;;;;;11.70;100.00;101103.88;10539916;28;20055;-61
2021/12/30 05:18:10;;;;;;;8.15;4.35;;;;;;;11.75;100.00;101089.66;10539342;28;20048;-62
2021/12/30 05:23:13;;;;;;;5.10;4.30;;;;;;;11.76;100.00;101094.81;10539091;28;20051;-61
2021/12/30 05:28:15;;;;;;;6.93;5.50;;;;;;;11.70;100.00;101103.03;10539265;28;20049;-60
2021/12/30 05:33:17;;;;;;;11.60;6.47;;;;;;;11.70;100.00;101100.41;10539215;28;20055;-60
2021/12/30 05:38:20;;;;;;;9.68;6.80;;;;;;;11.83;100.00;101100.56;10539878;28;20055;-60
2021/12/30 05:43:22;;;;;;;7.38;5.93;;;;;;;11.90;100.00;101112.38;10546513;28;20051;-61
2021/12/30 05:48:24;;;;;;;7.05;6.07;;;;;;;11.88;100.00;101114.25;10546442;28;20407;-61
2021/12/30 05:53:28;;;;;;;10.15;7.78;;;;;;;11.85;100.00;101123.16;10545860;28;20377;-61
2021/12/30 05:58:30;;;;;;;12.95;10.02;;;;;;;12.06;100.00;101139.44;10545904;28;20050;-61
2021/12/30 06:03:32;;;;;;;22.40;13.15;;;;;;;12.09;100.00;101135.81;10545606;28;20435;-61
2021/12/30 06:08:36;;;;;;;21.65;13.38;;;;;;;12.01;100.00;101125.75;10546066;28;20052;-61
2021/12/30 06:13:39;;;;;;;18.85;13.07;;;;;;;11.94;100.00;101115.72;10544897;28;20415;-61
2021/12/30 06:18:41;;;;;;;29.25;16.70;;;;;;;12.01;100.00;101110.00;10545215;28;20411;-62
2021/12/30 06:23:43;;;;;;;25.98;16.92;;;;;;;12.19;100.00;101107.25;10543987;28;20392;-62
2021/12/30 06:28:46;;;;;;;40.38;18.92;;;;;;;12.19;100.00;101125.63;10545615;28;20082;-61
2021/12/30 06:33:48;;;;;;;24.48;16.17;;;;;;;12.24;100.00;101123.56;10544560;28;20051;-61
2021/12/30 06:38:50;;;;;;;15.00;12.63;;;;;;;12.28;100.00;101109.31;10545230;28;20059;-61
2021/12/30 06:43:54;;;;;;;18.63;12.73;;;;;;;12.45;100.00;101119.66;10543852;28;20476;-61
2021/12/30 06:48:56;;;;;;;12.35;10.70;;;;;;;12.13;100.00;101129.44;10544633;28;20048;-60
2021/12/30 06:53:58;;;;;;;25.25;11.98;;;;;;;12.34;100.00;101140.47;10543314;28;20040;-60
2021/12/30 06:59:01;;;;;;;18.25;12.00;;;;;;;12.29;100.00;101139.03;10544109;28;20056;-60
2021/12/30 07:04:03;;;;;;;14.85;10.10;;;;;;;12.20;100.00;101162.25;10542329;28;20044;-61
2021/12/30 07:09:06;;;;;;;18.38;12.85;;;;;;;12.39;100.00;101162.06;10544148;28;20055;-60
2021/12/30 07:14:08;;;;;;;19.75;12.73;;;;;;;12.44;100.00;101165.25;10543200;28;20059;-60
2021/12/30 07:19:11;;;;;;;18.60;12.52;;;;;;;12.33;100.00;101167.66;10541734;28;20056;-60
2021/12/30 07:24:13;;;;;;;14.07;10.30;;;;;;;12.12;100.00;101161.03;10543068;28;20059;-60
2021/12/30 07:29:16;;;;;;;16.30;11.05;;;;;;;12.22;100.00;101177.94;10542670;28;20055;-60
2021/12/30 07:34:19;;;;;;;19.15;10.88;;;;;;;12.24;100.00;101178.72;10542631;28;20040;-60
2021/12/30 07:39:21;;;;;;;19.77;11.00;;;;;;;12.41;100.00;101180.34;10542290;28;20047;-62
2021/12/30 07:44:24;;;;;;;15.88;9.80;;;;;;;12.39;100.00;101192.69;10541729;28;20048;-60
2021/12/30 07:49:47;;;;;;;11.27;8.25;;;;;;;12.56;100.00;101196.97;10541663;28;20442;-60
2021/12/30 07:54:49;;;;;;;12.23;7.50;;;;;;;12.45;100.00;101190.53;10542004;28;20047;-60
2021/12/30 07:59:52;;;;;;;10.57;7.22;;;;;;;12.37;100.00;101200.69;10541604;28;20047;-61
2021/12/30 08:04:55;;;;;;;8.35;6.95;;;;;;;12.45;100.00;101200.22;10539039;28;20481;-60
2021/12/30 08:09:57;;;;;;;11.32;6.97;;;;;;;12.43;100.00;101216.06;10540558;28;20052;-60
2021/12/30 08:14:59;;;;;;;11.38;6.15;;;;;;;12.55;100.00;101209.25;10539637;28;20044;-60
2021/12/30 08:20:03;;;;;;;7.88;5.78;;;;;;;12.60;100.00;101217.69;10541012;28;20058;-60
2021/12/30 08:25:07;;;;;;;8.40;5.93;;;;;;;12.62;100.00;101207.09;10540860;28;20048;-60
2021/12/30 08:30:12;;;;;;;7.63;5.82;;;;;;;12.70;100.00;101225.03;10539343;28;20048;-59
2021/12/30 08:35:15;;;;;;;6.82;6.05;;;;;;;12.89;100.00;101217.72;10540321;28;20044;-60
2021/12/30 08:40:18;;;;;;;6.15;5.55;;;;;;;12.82;100.00;101216.41;10539830;28;20481;-60
2021/12/30 08:45:21;;;;;;;5.28;4.85;;;;;;;12.95;100.00;101235.75;10540219;28;20052;-60
2021/12/30 08:50:23;;;;;;;5.38;4.88;;;;;;;12.93;100.00;101231.56;10538480;28;20126;-60
2021/12/30 08:55:26;;;;;;;7.53;5.25;;;;;;;12.85;100.00;101232.00;10539811;28;20101;-61
2021/12/30 09:00:31;;;;;;;7.05;4.88;;;;;;;12.99;100.00;101245.16;10539671;28;20050;-60
2021/12/30 09:05:34;;;;;;;7.65;5.40;;;;;;;12.69;100.00;101258.31;10540125;28;20135;-60
2021/12/30 09:10:40;;;;;;;5.20;4.70;;;;;;;12.94;100.00;101262.97;10539964;28;20055;-60
2021/12/30 09:15:43;;;;;;;9.02;5.97;;;;;;;12.96;100.00;101260.25;10544327;28;20059;-60
2021/12/30 09:20:46;;;;;;;6.75;6.13;;;;;;;13.08;100.00;101248.16;10547584;28;20044;-60
2021/12/30 09:25:49;;;;;;;9.90;6.75;;;;;;;13.20;100.00;101252.69;10547121;28;20519;-60
2021/12/30 09:30:51;;;;;;;10.73;8.15;;;;;;;13.04;100.00;101263.28;10547245;28;20052;-60
2021/12/30 09:35:54;;;;;;;12.27;10.80;;;;;;;13.03;100.00;101282.63;10546014;28;20507;-62
2021/12/30 09:40:56;;;;;;;13.90;11.38;;;;;;;12.92;100.00;101259.59;10546686;28;20051;-61
2021/12/30 09:45:59;;;;;;;14.35;12.48;;;;;;;13.09;100.00;101298.00;10546508;28;20048;-61
2021/12/30 09:51:01;;;;;;;15.35;13.13;;;;;;;13.02;100.00;101305.41;10546353;28;20435;-60
2021/12/30 09:56:04;;;;;;;15.68;13.45;;;;;;;13.25;100.00;101300.56;10546073;28;20381;-61
2021/12/30 10:01:07;;;;;;;21.58;14.27;;;;;;;13.24;100.00;101311.19;10544981;28;20040;-61
2021/12/30 10:06:12;;;;;;;19.23;13.80;;;;;;;13.23;100.00;101298.97;10545692;28;20067;-60
2021/12/30 10:11:14;;;;;;;20.33;12.70;;;;;;;13.46;100.00;101290.53;10545693;28;20055;-61
2021/12/30 10:16:17;;;;;;;17.35;12.48;;;;;;;13.47;100.00;101294.03;10545470;28;20048;-60
2021/12/30 10:21:31;;;;;;;15.50;11.73;;;;;;;13.68;100.00;101299.75;10545029;28;20136;-61
2021/12/30 10:26:54;;;;;;;13.63;10.98;;;;;;;13.53;100.00;101291.88;10543007;28;20121;-61
2021/12/30 10:31:56;;;;;;;13.60;9.32;;;;;;;13.28;100.00;101307.41;10543698;28;20400;-60
2021/12/30 10:37:01;;;;;;;14.05;8.23;;;;;;;13.50;100.00;101310.47;10544627;28;20438;-61
2021/12/30 10:42:06;;;;;;;15.23;8.38;;;;;;;13.70;100.00;101318.91;10542958;28;20055;-61
2021/12/30 10:47:08;;;;;;;12.77;6.68;;;;;;;13.38;100.00;101319.09;10544322;28;20050;-61
2021/12/30 10:52:15;;;;;;;21.02;7.60;;;;;;;13.50;100.00;101315.75;10544048;28;20058;-61
2021/12/30 10:57:18;;;;;;;12.68;6.63;;;;;;;13.59;100.00;101324.84;10543763;28;20403;-60
2021/12/30 11:02:23;;;;;;;13.52;5.63;;;;;;;13.66;100.00;101307.72;10542990;28;20051;-60
2021/12/30 11:07:48;;;;;;;11.80;5.25;;;;;;;13.63;100.00;101318.44;10525839;28;20119;-60
2021/12/30 11:12:50;;;;;;;18.35;7.22;;;;;;;13.58;100.00;101317.88;10542941;28;20044;-60
2021/12/30 11:18:10;;;;;;;9.70;5.03;;;;;;;13.61;100.00;101330.00;10542894;28;20408;-60
2021/12/30 11:23:15;;;;;;;12.15;5.82;;;;;;;13.59;100.00;101318.75;10542363;28;20381;-60
2021/12/30 11:28:18;;;;;;;14.02;5.68;;;;;;;13.61;100.00;101322.13;10541338;28;20480;-59
2021/12/30 11:33:20;;;;;;;17.77;7.18;;;;;;;13.71;100.00;101320.59;10542334;28;20380;-59
2021/12/30 11:38:22;;;;;;;15.98;6.53;;;;;;;13.43;100.00;101332.84;10540864;28;20051;-59
2021/12/30 11:43:42;;;;;;;18.33;5.63;;;;;;;13.66;100.00;101323.50;10541784;28;20051;-59
2021/12/30 11:48:54;;;;;;;12.65;7.40;;;;;;;13.44;100.00;101333.69;10542684;28;20052;-59
2021/12/30 11:53:57;;;;;;;17.13;6.57;;;;;;;13.59;100.00;101345.06;10541622;28;20052;-59
2021/12/30 11:58:59;;;;;;;17.27;6.43;;;;;;;13.58;100.00;101346.81;10540058;28;20051;-59
2021/12/30 12:04:12;;;;;;;17.27;6.60;;;;;;;13.70;100.00;101339.94;10540847;28;20051;-59
2021/12/30 12:09:22;;;;;;;20.92;6.70;;;;;;;13.82;100.00;101340.97;10541288;28;20048;-59
2021/12/30 12:14:41;;;;;;;18.30;6.93;;;;;;;14.00;100.00;101346.88;10540835;28;20048;-60
2021/12/30 12:19:46;;;;;;;12.60;6.35;;;;;;;14.01;100.00;101340.69;10539065;28;20499;-59
2021/12/30 12:25:05;;;;;;;14.75;6.20;;;;;;;14.09;100.00;101333.16;10540330;28;20044;-59
2021/12/30 12:30:22;;;;;;;14.50;5.00;;;;;;;14.03;100.00;101342.25;10540564;28;20131;-60
2021/12/30 12:35:30;;;;;;;12.88;6.28;;;;;;;13.89;100.00;101347.56;10539290;28;20048;-60
2021/12/30 12:40:38;;;;;;;19.25;6.00;;;;;;;14.02;100.00;101345.84;10540261;28;20043;-60
2021/12/30 12:45:53;;;;;;;16.98;5.90;;;;;;;13.90;100.00;101349.25;10538984;28;20051;-59
2021/12/30 12:51:06;;;;;;;14.52;5.78;;;;;;;13.91;100.00;101349.16;10539970;28;20135;-60
2021/12/30 12:56:16;;;;;;;9.77;5.80;;;;;;;13.92;100.00;101347.38;10539915;28;20044;-60
2021/12/30 13:01:20;;;;;;;11.38;5.65;;;;;;;13.96;100.00;101348.88;10538646;28;20048;-60
2021/12/30 13:06:31;;;;;;;14.52;5.53;;;;;;;13.89;100.00;101356.31;10539516;28;20075;-60
2021/12/30 13:11:37;;;;;;;10.57;4.93;;;;;;;13.97;100.00;101354.97;10539539;28;20061;-60
2021/12/30 13:16:40;;;;;;;12.57;5.60;;;;;;;13.94;100.00;101362.13;10538258;28;20040;-60
2021/12/30 13:21:52;;;;;;;12.52;5.38;;;;;;;13.77;100.00;101370.22;10537993;28;20044;-60
2021/12/30 13:26:54;;;;;;;;;;;;;;;13.94;100.00;101375.28;10539733;28;20044;-59
2021/12/30 13:32:07;;;;;;;10.45;5.15;;;;;;;13.75;100.00;101372.97;10539232;28;19920;-60
2021/12/30 13:37:15;;;;;;;9.73;5.18;;;;;;;13.84;100.00;101374.16;10538167;28;20044;-60
2021/12/30 13:42:19;;;;;;;11.63;5.40;;;;;;;13.85;100.00;101370.59;10538759;28;20044;-60
2021/12/30 13:47:35;;;;;;;10.32;4.90;;;;;;;13.91;100.00;101369.38;10539344;28;20062;-60
2021/12/30 13:52:40;;;;;;;11.98;5.85;;;;;;;13.89;100.00;101372.09;10538633;28;20056;-60
2021/12/30 13:57:44;;;;;;;9.57;5.60;;;;;;;13.86;100.00;101380.19;10538408;28;20468;-61
2021/12/30 14:03:02;;;;;;;8.48;5.22;;;;;;;13.81;100.00;101382.25;10543100;28;20048;-60
2021/12/30 14:08:08;;;;;;;11.10;5.70;;;;;;;13.68;100.00;101379.50;10546204;28;20044;-60
2021/12/30 14:13:10;;;;;;;8.90;4.60;;;;;;;13.80;100.00;101379.72;10544659;28;20377;-60
2021/12/30 14:18:12;;;;;;;6.28;3.55;;;;;;;13.79;100.00;101389.41;10545739;28;20048;-60
2021/12/30 14:23:48;;;;;;;7.65;3.88;;;;;;;13.82;100.00;101398.88;10545103;28;20048;-61
2021/12/30 14:28:55;;;;;;;7.13;3.78;;;;;;;13.63;100.00;101393.91;10546760;28;20059;-60
2021/12/30 14:34:06;;;;;;;6.20;4.35;;;;;;;13.69;100.00;101398.81;10545024;28;20400;-60
2021/12/30 14:39:40;;;;;;;10.15;4.63;;;;;;;13.72;100.00;101404.72;10545178;28;20048;-60
2021/12/30 14:44:49;;;;;;;16.15;4.13;;;;;;;13.64;100.00;101398.25;10537267;28;20082;-60
2021/12/30 14:49:58;;;;;;;5.93;3.65;;;;;;;13.62;100.00;101406.22;10543420;28;20072;-60
2021/12/30 14:55:00;;;;;;;7.68;3.38;;;;;;;13.62;100.00;101419.38;10543169;28;20044;-60
2021/12/30 15:00:06;;;;;;;7.55;3.40;;;;;;;13.75;100.00;101422.09;10544267;28;20048;-60
2021/12/30 15:05:09;;;;;;;6.85;3.63;;;;;;;13.61;100.00;101417.66;10543536;28;20047;-60
2021/12/30 15:10:14;;;;;;;8.82;4.10;;;;;;;13.61;100.00;101417.66;10542869;28;20067;-60
2021/12/30 15:15:23;;;;;;;8.65;3.95;;;;;;;13.60;100.00;101429.16;10542875;28;20048;-60
2021/12/30 15:20:29;;;;;;;9.73;5.03;;;;;;;13.53;100.00;101427.81;10542895;28;20048;-60
2021/12/30 15:25:33;;;;;;;7.38;5.03;;;;;;;13.59;100.00;101437.97;10542732;28;20415;-60
2021/12/30 15:30:35;;;;;;;5.85;4.82;;;;;;;13.63;100.00;101438.63;10542767;28;20051;-60
2021/12/30 15:35:40;;;;;;;8.52;4.95;;;;;;;13.41;100.00;101445.16;10541619;28;20096;-60
2021/12/30 15:40:44;;;;;;;10.18;6.07;;;;;;;13.62;100.00;101455.38;10541941;28;20052;-60
2021/12/30 15:45:46;;;;;;;7.82;5.28;;;;;;;13.56;100.00;101448.66;10541822;28;20051;-60
2021/12/30 15:50:49;;;;;;;8.50;6.80;;;;;;;13.69;100.00;101456.69;10541813;28;20048;-60
2021/12/30 15:55:51;;;;;;;9.52;5.90;;;;;;;13.64;100.00;101472.75;10541616;28;20059;-60
2021/12/30 16:00:59;;;;;;;13.27;8.00;;;;;;;13.63;100.00;101478.09;10541136;28;20090;-60
2021/12/30 16:06:02;;;;;;;10.63;6.15;;;;;;;13.56;100.00;101475.81;10541354;28;20094;-60
2021/12/30 16:11:04;;;;;;;13.35;7.30;;;;;;;13.68;100.00;101491.81;10541423;28;20060;-60
2021/12/30 16:16:07;;;;;;;9.98;7.05;;;;;;;13.69;100.00;101496.16;10540481;28;20404;-60
2021/12/30 16:21:09;;;;;;;11.57;7.15;;;;;;;13.70;100.00;101501.34;10541175;28;20154;-60
2021/12/30 16:26:12;;;;;;;8.10;6.75;;;;;;;13.56;100.00;101501.28;10540065;28;20047;-60
2021/12/30 16:31:14;;;;;;;13.82;7.95;;;;;;;13.71;100.00;101486.38;10540387;28;20047;-61
2021/12/30 16:36:17;;;;;;;9.30;7.05;;;;;;;13.59;100.00;101495.03;10540202;28;20097;-60
2021/12/30 16:41:20;;;;;;;11.77;8.02;;;;;;;13.69;100.00;101494.38;10540019;28;20048;-60
2021/12/30 16:46:23;;;;;;;13.65;7.90;;;;;;;13.67;100.00;101491.00;10540759;28;20130;-61
2021/12/30 16:51:26;;;;;;;8.52;7.28;;;;;;;13.53;100.00;101507.59;10540444;28;20051;-60
2021/12/30 16:56:28;;;;;;;7.93;6.70;;;;;;;13.79;100.00;101514.88;10540202;28;20055;-60
2021/12/30 17:01:30;;;;;;;7.22;6.53;;;;;;;13.69;100.00;101507.53;10539472;28;20389;-60
2021/12/30 17:06:34;;;;;;;10.73;7.18;;;;;;;13.61;100.00;101522.06;10539925;28;20157;-60
2021/12/30 17:11:36;;;;;;;7.18;6.28;;;;;;;13.68;100.00;101532.13;10539457;28;20055;-60
2021/12/30 17:16:38;;;;;;;9.38;7.55;;;;;;;13.60;100.00;101539.66;10539414;28;20044;-61
2021/12/30 17:21:41;;;;;;;8.10;6.22;;;;;;;13.49;100.00;101535.00;10539904;28;20133;-60
2021/12/30 17:26:43;;;;;;;7.40;6.72;;;;;;;13.75;100.00;101544.03;10537979;28;20040;-61
2021/12/30 17:31:46;;;;;;;9.50;7.22;;;;;;;13.62;100.00;101553.56;10538900;28;20051;-61
2021/12/30 17:36:48;;;;;;;8.95;7.88;;;;;;;13.73;100.00;101548.53;10543021;28;20106;-60
2021/12/30 17:41:50;;;;;;;10.20;7.85;;;;;;;13.75;100.00;101551.03;10546571;28;20048;-61
2021/12/30 17:46:53;;;;;;;8.18;6.32;;;;;;;13.64;100.00;101554.31;10547343;28;20040;-60
2021/12/30 17:51:56;;;;;;;8.15;6.70;;;;;;;13.60;100.00;101555.44;10546450;28;20079;-60
2021/12/30 17:57:02;;;;;;;8.65;6.32;;;;;;;13.73;100.00;101558.19;10546692;28;20476;-61
2021/12/30 18:02:05;;;;;;;11.52;8.98;;;;;;;13.67;100.00;101548.03;10546573;28;20055;-61
2021/12/30 18:07:07;;;;;;;10.55;7.95;;;;;;;13.59;100.00;101558.16;10544873;28;20052;-61
2021/12/30 18:12:10;;;;;;;10.38;8.82;;;;;;;13.60;100.00;101563.34;10545827;28;20047;-61
2021/12/30 18:17:12;;;;;;;11.15;7.43;;;;;;;13.74;100.00;101562.53;10546120;28;20048;-60
2021/12/30 18:22:14;;;;;;;10.73;7.85;;;;;;;13.72;100.00;101577.56;10544196;28;20051;-60
2021/12/30 18:27:19;;;;;;;11.60;7.97;;;;;;;13.52;100.00;101584.81;10545353;28;20063;-61
2021/12/30 18:32:21;;;;;;;11.63;7.25;;;;;;;13.53;100.00;101596.19;10545245;28;20055;-60
2021/12/30 18:37:24;;;;;;;10.65;6.88;;;;;;;13.54;100.00;101600.50;10545153;28;20048;-61
2021/12/30 18:42:28;;;;;;;11.80;7.35;;;;;;;13.53;100.00;101598.81;10526580;28;20040;-60
2021/12/30 18:47:30;;;;;;;12.25;7.15;;;;;;;13.56;100.00;101603.91;10543976;28;20051;-60
2021/12/30 18:52:33;;;;;;;13.95;7.47;;;;;;;13.34;100.00;101620.06;10544275;28;20051;-60
2021/12/30 18:57:36;;;;;;;13.50;7.53;;;;;;;13.31;100.00;101628.06;10543845;28;20541;-60
2021/12/30 19:02:38;;;;;;;10.50;8.32;;;;;;;13.26;100.00;101623.06;10543500;28;20514;-60
2021/12/30 19:07:41;;;;;;;12.82;8.25;;;;;;;13.26;100.00;101620.44;10543881;28;20052;-60
2021/12/30 19:12:49;;;;;;;11.30;7.97;;;;;;;13.17;100.00;101636.72;10543362;28;20048;-60
2021/12/30 19:17:52;;;;;;;14.05;9.35;;;;;;;13.16;100.00;101638.53;10543770;28;20051;-60
2021/12/30 19:22:54;;;;;;;15.00;9.48;;;;;;;13.08;100.00;101637.22;10543119;28;20051;-61
2021/12/30 19:27:59;;;;;;;17.85;9.77;;;;;;;13.12;100.00;101631.72;10542692;28;20436;-61
2021/12/30 19:33:01;;;;;;;16.52;9.07;;;;;;;13.09;100.00;101625.78;10542375;28;20061;-61
2021/12/30 19:38:05;;;;;;;9.82;8.82;;;;;;;13.01;100.00;101648.09;10542869;28;20047;-60
2021/12/30 19:43:08;;;;;;;14.73;8.23;;;;;;;13.09;100.00;101637.13;10542222;28;20047;-60
2021/12/30 19:48:14;;;;;;;14.77;9.05;;;;;;;13.04;100.00;101638.34;10542055;28;20052;-61
2021/12/30 19:53:17;;;;;;;20.05;7.93;;;;;;;13.15;100.00;101635.97;10541113;28;20066;-60
2021/12/30 19:58:19;;;;;;;17.52;6.80;;;;;;;13.16;100.00;101635.91;10541865;28;20051;-60
2021/12/30 20:03:23;;;;;;;6.82;5.55;;;;;;;13.11;100.00;101644.94;10541085;28;20423;-61
2021/12/30 20:08:26;;;;;;;12.57;5.53;;;;;;;13.15;100.00;101642.06;10542016;28;20113;-61
2021/12/30 20:13:28;;;;;;;16.27;6.20;;;;;;;13.25;100.00;101655.56;10540785;28;20059;-60
2021/12/30 20:18:31;;;;;;;7.25;3.70;;;;;;;13.34;100.00;101648.97;10540895;28;20054;-60
2021/12/30 20:23:33;;;;;;;10.25;4.15;;;;;;;13.23;100.00;101649.56;10540895;28;20044;-60
2021/12/30 20:28:35;;;;;;;10.18;4.78;;;;;;;13.38;100.00;101659.25;10539956;28;20048;-61
2021/12/30 20:33:39;;;;;;;11.70;4.30;;;;;;;13.31;100.00;101668.38;10540806;28;20114;-60
2021/12/30 20:38:41;;;;;;;9.27;4.47;;;;;;;13.33;100.00;101663.06;10540271;28;20131;-60
2021/12/30 20:43:43;;;;;;;4.93;4.53;;;;;;;13.28;100.00;101676.44;10540189;28;20044;-60
2021/12/30 20:48:46;;;;;;;15.93;9.48;;;;;;;13.34;100.00;101677.91;10540190;28;20051;-60
2021/12/30 20:53:51;;;;;;;14.18;11.73;;;;;;;13.28;100.00;101676.44;10539001;28;20048;-60
2021/12/30 20:58:55;;;;;;;20.05;13.60;;;;;;;13.34;100.00;101684.00;10539723;28;20500;-60
2021/12/30 21:03:58;;;;;;;16.15;12.93;;;;;;;13.32;100.00;101685.88;10539359;28;20051;-61
2021/12/30 21:09:01;;;;;;;15.25;12.18;;;;;;;13.34;100.00;101676.13;10540261;28;20130;-60
2021/12/30 21:14:04;;;;;;;17.80;10.90;;;;;;;13.28;100.00;101700.13;10547747;28;20488;-60
2021/12/30 21:19:08;;;;;;;11.32;8.90;;;;;;;13.31;100.00;101692.03;10548025;28;20044;-60
2021/12/30 21:24:10;;;;;;;10.80;7.32;;;;;;;13.29;100.00;101685.19;10547414;28;20051;-60
2021/12/30 21:29:13;;;;;;;6.90;6.15;;;;;;;13.25;100.00;101681.88;10547300;28;20055;-61
2021/12/30 21:34:16;;;;;;;10.40;6.95;;;;;;;13.26;100.00;101686.19;10547036;28;20389;-60
2021/12/30 21:39:18;;;;;;;7.25;5.93;;;;;;;13.27;100.00;101692.31;10547187;28;20058;-60
2021/12/30 21:44:21;;;;;;;8.00;4.75;;;;;;;13.17;100.00;101698.06;10547138;28;20080;-60
2021/12/30 21:49:24;;;;;;;8.88;4.47;;;;;;;13.23;100.00;101690.75;10545692;28;20048;-61
2021/12/30 21:54:27;;;;;;;9.55;5.80;;;;;;;13.03;100.00;101684.81;10546096;28;20086;-60
2021/12/30 21:59:29;;;;;;;7.45;5.85;;;;;;;13.04;100.00;101702.25;10545342;28;20047;-60
2021/12/30 22:04:32;;;;;;;13.60;6.38;;;;;;;13.01;100.00;101682.25;10546089;28;20052;-61
2021/12/30 22:09:34;;;;;;;8.88;6.32;;;;;;;13.01;100.00;101678.75;10546465;28;20047;-60
2021/12/30 22:14:37;;;;;;;14.77;6.75;;;;;;;13.01;100.00;101676.13;10545984;28;20055;-61
2021/12/30 22:19:39;;;;;;;12.30;8.57;;;;;;;12.97;100.00;101657.06;10545314;28;20044;-61
2021/12/30 22:24:41;;;;;;;10.82;8.63;;;;;;;12.95;100.00;101658.94;10543943;28;20404;-60
2021/12/30 22:29:44;;;;;;;14.07;8.98;;;;;;;12.96;100.00;101658.00;10545476;28;20047;-60
2021/12/30 22:34:47;;;;;;;13.70;9.55;;;;;;;12.86;100.00;101671.69;10545007;28;20048;-60
2021/12/30 22:39:49;;;;;;;12.50;9.93;;;;;;;12.92;100.00;101672.22;10544870;28;20048;-60
2021/12/30 22:44:52;;;;;;;16.27;10.60;;;;;;;12.89;100.00;101661.88;10544229;28;20373;-60
2021/12/30 22:49:58;;;;;;;10.85;7.85;;;;;;;12.87;100.00;101668.16;10544393;28;20400;-60